sensor_id;sensor_type;location;lat;lon;timestamp;P1;durP1;ratioP1;P2;durP2;ratioP2
35330;SDS011;21441;52.190;20.910;2022-11-12T00:00:10;26.50;;;15.40;;
35330;SDS011;21441;52.190;20.910;2022-11-12T00:02:58;21.58;;;14.25;;
35330;SDS011;21441;52.190;20.910;2022-11-12T00:05:25;25.05;;;14.70;;
35330;SDS011;21441;52.190;20.910;2022-11-12T00:07:54;27.13;;;15.45;;
35330;SDS011;21441;52.190;20.910;2022-11-12T00:10:21;25.85;;;16.23;;
35330;SDS011;21441;52.190;20.910;2022-11-12T00:12:48;25.08;;;14.98;;
35330;SDS011;21441;52.190;20.910;2022-11-12T00:15:15;26.67;;;14.32;;
35330;SDS011;21441;52.190;20.910;2022-11-12T00:17:42;27.30;;;15.70;;
35330;SDS011;21441;52.190;20.910;2022-11-12T00:20:09;20.00;;;13.20;;
35330;SDS011;21441;52.190;20.910;2022-11-12T00:22:37;21.35;;;13.85;;
35330;SDS011;21441;52.190;20.910;2022-11-12T00:25:06;22.65;;;14.50;;
35330;SDS011;21441;52.190;20.910;2022-11-12T00:27:34;18.60;;;10.25;;
35330;SDS011;21441;52.190;20.910;2022-11-12T00:30:01;28.10;;;16.17;;
35330;SDS011;21441;52.190;20.910;2022-11-12T00:32:29;25.52;;;15.77;;
35330;SDS011;21441;52.190;20.910;2022-11-12T00:34:56;25.05;;;16.38;;
35330;SDS011;21441;52.190;20.910;2022-11-12T00:37:23;20.92;;;11.80;;
35330;SDS011;21441;52.190;20.910;2022-11-12T00:39:50;24.70;;;13.55;;
35330;SDS011;21441;52.190;20.910;2022-11-12T00:42:18;22.75;;;13.98;;
35330;SDS011;21441;52.190;20.910;2022-11-12T00:44:45;23.67;;;13.90;;
35330;SDS011;21441;52.190;20.910;2022-11-12T00:47:14;24.05;;;14.68;;
35330;SDS011;21441;52.190;20.910;2022-11-12T00:49:41;23.40;;;14.68;;
35330;SDS011;21441;52.190;20.910;2022-11-12T00:52:08;24.75;;;13.55;;
35330;SDS011;21441;52.190;20.910;2022-11-12T00:54:35;23.85;;;15.02;;
35330;SDS011;21441;52.190;20.910;2022-11-12T00:57:02;22.73;;;12.45;;
35330;SDS011;21441;52.190;20.910;2022-11-12T00:59:31;26.40;;;15.68;;
35330;SDS011;21441;52.190;20.910;2022-11-12T01:01:58;26.52;;;14.23;;
35330;SDS011;21441;52.190;20.910;2022-11-12T01:04:25;22.50;;;13.85;;
35330;SDS011;21441;52.190;20.910;2022-11-12T01:06:52;19.80;;;13.95;;
35330;SDS011;21441;52.190;20.910;2022-11-12T01:09:19;23.58;;;13.10;;
35330;SDS011;21441;52.190;20.910;2022-11-12T01:11:46;19.27;;;13.57;;
35330;SDS011;21441;52.190;20.910;2022-11-12T01:14:14;28.23;;;15.07;;
35330;SDS011;21441;52.190;20.910;2022-11-12T01:16:42;25.77;;;15.88;;
35330;SDS011;21441;52.190;20.910;2022-11-12T01:19:10;26.30;;;14.23;;
35330;SDS011;21441;52.190;20.910;2022-11-12T01:21:38;22.55;;;13.52;;
35330;SDS011;21441;52.190;20.910;2022-11-12T01:24:08;20.08;;;13.23;;
35330;SDS011;21441;52.190;20.910;2022-11-12T01:26:36;27.15;;;13.90;;
35330;SDS011;21441;52.190;20.910;2022-11-12T01:29:04;25.15;;;14.15;;
35330;SDS011;21441;52.190;20.910;2022-11-12T01:31:32;21.60;;;13.05;;
35330;SDS011;21441;52.190;20.910;2022-11-12T01:34:03;24.05;;;13.68;;
35330;SDS011;21441;52.190;20.910;2022-11-12T01:36:32;24.08;;;13.27;;
35330;SDS011;21441;52.190;20.910;2022-11-12T01:39:01;22.58;;;13.70;;
35330;SDS011;21441;52.190;20.910;2022-11-12T01:41:30;22.27;;;13.07;;
35330;SDS011;21441;52.190;20.910;2022-11-12T01:44:06;23.88;;;13.55;;
35330;SDS011;21441;52.190;20.910;2022-11-12T01:46:35;23.92;;;13.70;;
35330;SDS011;21441;52.190;20.910;2022-11-12T01:49:08;19.30;;;12.52;;
35330;SDS011;21441;52.190;20.910;2022-11-12T01:51:41;22.58;;;13.38;;
35330;SDS011;21441;52.190;20.910;2022-11-12T01:54:13;19.98;;;12.90;;
35330;SDS011;21441;52.190;20.910;2022-11-12T01:56:45;21.45;;;13.57;;
35330;SDS011;21441;52.190;20.910;2022-11-12T01:59:14;19.52;;;12.38;;
35330;SDS011;21441;52.190;20.910;2022-11-12T02:01:45;23.83;;;13.88;;
35330;SDS011;21441;52.190;20.910;2022-11-12T02:04:14;20.35;;;12.88;;
35330;SDS011;21441;52.190;20.910;2022-11-12T02:06:41;19.02;;;13.35;;
35330;SDS011;21441;52.190;20.910;2022-11-12T02:09:10;19.58;;;12.43;;
35330;SDS011;21441;52.190;20.910;2022-11-12T02:11:39;23.58;;;12.98;;
35330;SDS011;21441;52.190;20.910;2022-11-12T02:14:06;23.90;;;13.65;;
35330;SDS011;21441;52.190;20.910;2022-11-12T02:16:33;21.48;;;12.60;;
35330;SDS011;21441;52.190;20.910;2022-11-12T02:19:03;21.83;;;13.27;;
35330;SDS011;21441;52.190;20.910;2022-11-12T02:21:32;25.85;;;13.32;;
35330;SDS011;21441;52.190;20.910;2022-11-12T02:24:00;21.75;;;11.70;;
35330;SDS011;21441;52.190;20.910;2022-11-12T02:26:31;19.30;;;12.02;;
35330;SDS011;21441;52.190;20.910;2022-11-12T02:29:01;23.33;;;13.43;;
35330;SDS011;21441;52.190;20.910;2022-11-12T02:31:29;18.35;;;11.63;;
35330;SDS011;21441;52.190;20.910;2022-11-12T02:33:56;19.23;;;11.70;;
35330;SDS011;21441;52.190;20.910;2022-11-12T02:36:23;20.98;;;12.07;;
35330;SDS011;21441;52.190;20.910;2022-11-12T02:38:52;20.38;;;11.65;;
35330;SDS011;21441;52.190;20.910;2022-11-12T02:41:19;21.23;;;10.93;;
35330;SDS011;21441;52.190;20.910;2022-11-12T02:43:46;19.33;;;11.93;;
35330;SDS011;21441;52.190;20.910;2022-11-12T02:46:13;24.27;;;12.52;;
35330;SDS011;21441;52.190;20.910;2022-11-12T02:48:41;19.65;;;11.98;;
35330;SDS011;21441;52.190;20.910;2022-11-12T02:51:08;21.23;;;11.75;;
35330;SDS011;21441;52.190;20.910;2022-11-12T02:53:35;20.77;;;12.10;;
35330;SDS011;21441;52.190;20.910;2022-11-12T02:56:04;19.63;;;13.07;;
35330;SDS011;21441;52.190;20.910;2022-11-12T02:58:31;20.08;;;11.13;;
35330;SDS011;21441;52.190;20.910;2022-11-12T03:00:58;23.90;;;15.23;;
35330;SDS011;21441;52.190;20.910;2022-11-12T03:03:25;23.65;;;13.75;;
35330;SDS011;21441;52.190;20.910;2022-11-12T03:05:55;25.55;;;14.63;;
35330;SDS011;21441;52.190;20.910;2022-11-12T03:08:23;19.92;;;11.98;;
35330;SDS011;21441;52.190;20.910;2022-11-12T03:10:51;24.02;;;13.32;;
35330;SDS011;21441;52.190;20.910;2022-11-12T03:13:20;20.90;;;12.65;;
35330;SDS011;21441;52.190;20.910;2022-11-12T03:15:47;22.45;;;12.52;;
35330;SDS011;21441;52.190;20.910;2022-11-12T03:18:14;19.73;;;12.40;;
35330;SDS011;21441;52.190;20.910;2022-11-12T03:20:41;23.38;;;13.32;;
35330;SDS011;21441;52.190;20.910;2022-11-12T03:23:09;21.85;;;12.50;;
35330;SDS011;21441;52.190;20.910;2022-11-12T03:25:36;24.20;;;12.98;;
35330;SDS011;21441;52.190;20.910;2022-11-12T03:28:04;24.45;;;13.43;;
35330;SDS011;21441;52.190;20.910;2022-11-12T03:30:34;18.50;;;11.32;;
35330;SDS011;21441;52.190;20.910;2022-11-12T03:35:31;19.83;;;11.15;;
35330;SDS011;21441;52.190;20.910;2022-11-12T03:37:58;21.55;;;12.73;;
35330;SDS011;21441;52.190;20.910;2022-11-12T03:40:26;21.08;;;11.73;;
35330;SDS011;21441;52.190;20.910;2022-11-12T03:42:54;19.52;;;12.45;;
35330;SDS011;21441;52.190;20.910;2022-11-12T03:45:22;19.98;;;11.35;;
35330;SDS011;21441;52.190;20.910;2022-11-12T03:47:52;21.67;;;12.05;;
35330;SDS011;21441;52.190;20.910;2022-11-12T03:50:21;22.52;;;12.88;;
35330;SDS011;21441;52.190;20.910;2022-11-12T03:52:51;24.25;;;12.27;;
35330;SDS011;21441;52.190;20.910;2022-11-12T03:55:20;19.83;;;12.18;;
35330;SDS011;21441;52.190;20.910;2022-11-12T03:57:49;21.80;;;12.68;;
35330;SDS011;21441;52.190;20.910;2022-11-12T04:00:17;24.30;;;13.40;;
35330;SDS011;21441;52.190;20.910;2022-11-12T04:02:46;19.10;;;11.43;;
35330;SDS011;21441;52.190;20.910;2022-11-12T04:05:15;18.20;;;11.32;;
35330;SDS011;21441;52.190;20.910;2022-11-12T04:08:00;16.27;;;9.30;;
35330;SDS011;21441;52.190;20.910;2022-11-12T04:10:47;22.25;;;11.60;;
35330;SDS011;21441;52.190;20.910;2022-11-12T04:13:14;18.50;;;10.98;;
35330;SDS011;21441;52.190;20.910;2022-11-12T04:15:55;19.97;;;10.73;;
35330;SDS011;21441;52.190;20.910;2022-11-12T04:18:41;18.35;;;11.05;;
35330;SDS011;21441;52.190;20.910;2022-11-12T04:21:29;18.98;;;12.15;;
35330;SDS011;21441;52.190;20.910;2022-11-12T04:24:15;21.25;;;11.80;;
35330;SDS011;21441;52.190;20.910;2022-11-12T04:27:00;22.75;;;11.95;;
35330;SDS011;21441;52.190;20.910;2022-11-12T04:29:28;20.35;;;12.00;;
35330;SDS011;21441;52.190;20.910;2022-11-12T04:32:13;20.83;;;12.02;;
35330;SDS011;21441;52.190;20.910;2022-11-12T04:34:40;21.48;;;12.10;;
35330;SDS011;21441;52.190;20.910;2022-11-12T04:37:09;21.77;;;11.57;;
35330;SDS011;21441;52.190;20.910;2022-11-12T04:39:36;24.48;;;12.48;;
35330;SDS011;21441;52.190;20.910;2022-11-12T04:42:03;20.52;;;11.90;;
35330;SDS011;21441;52.190;20.910;2022-11-12T04:44:48;20.60;;;13.98;;
35330;SDS011;21441;52.190;20.910;2022-11-12T04:47:29;26.35;;;12.70;;
35330;SDS011;21441;52.190;20.910;2022-11-12T04:49:59;23.92;;;14.02;;
35330;SDS011;21441;52.190;20.910;2022-11-12T04:52:29;26.83;;;14.77;;
35330;SDS011;21441;52.190;20.910;2022-11-12T04:54:57;18.70;;;11.80;;
35330;SDS011;21441;52.190;20.910;2022-11-12T04:57:24;28.85;;;15.95;;
35330;SDS011;21441;52.190;20.910;2022-11-12T04:59:52;21.92;;;13.98;;
35330;SDS011;21441;52.190;20.910;2022-11-12T05:02:19;25.42;;;14.57;;
35330;SDS011;21441;52.190;20.910;2022-11-12T05:04:46;25.52;;;13.88;;
35330;SDS011;21441;52.190;20.910;2022-11-12T05:07:13;25.38;;;13.05;;
35330;SDS011;21441;52.190;20.910;2022-11-12T05:09:42;25.02;;;14.15;;
35330;SDS011;21441;52.190;20.910;2022-11-12T05:12:09;25.50;;;12.75;;
35330;SDS011;21441;52.190;20.910;2022-11-12T05:14:37;23.50;;;14.00;;
35330;SDS011;21441;52.190;20.910;2022-11-12T05:17:04;27.98;;;13.93;;
35330;SDS011;21441;52.190;20.910;2022-11-12T05:19:31;24.83;;;13.55;;
35330;SDS011;21441;52.190;20.910;2022-11-12T05:22:00;28.75;;;16.33;;
35330;SDS011;21441;52.190;20.910;2022-11-12T05:24:34;25.70;;;15.00;;
35330;SDS011;21441;52.190;20.910;2022-11-12T05:27:05;20.67;;;13.90;;
35330;SDS011;21441;52.190;20.910;2022-11-12T05:29:34;28.20;;;15.75;;
35330;SDS011;21441;52.190;20.910;2022-11-12T05:32:01;28.20;;;15.85;;
35330;SDS011;21441;52.190;20.910;2022-11-12T05:34:29;29.48;;;15.20;;
35330;SDS011;21441;52.190;20.910;2022-11-12T05:36:57;27.00;;;16.73;;
35330;SDS011;21441;52.190;20.910;2022-11-12T05:39:24;25.73;;;13.95;;
35330;SDS011;21441;52.190;20.910;2022-11-12T05:41:51;29.50;;;16.45;;
35330;SDS011;21441;52.190;20.910;2022-11-12T05:44:20;27.85;;;15.70;;
35330;SDS011;21441;52.190;20.910;2022-11-12T05:46:47;27.20;;;16.85;;
35330;SDS011;21441;52.190;20.910;2022-11-12T05:49:15;26.23;;;16.17;;
35330;SDS011;21441;52.190;20.910;2022-11-12T05:51:43;29.20;;;15.98;;
35330;SDS011;21441;52.190;20.910;2022-11-12T05:54:10;26.00;;;15.93;;
35330;SDS011;21441;52.190;20.910;2022-11-12T05:56:38;26.40;;;16.15;;
35330;SDS011;21441;52.190;20.910;2022-11-12T05:59:06;23.45;;;13.98;;
35330;SDS011;21441;52.190;20.910;2022-11-12T06:01:38;25.30;;;12.63;;
35330;SDS011;21441;52.190;20.910;2022-11-12T06:04:08;30.08;;;17.58;;
35330;SDS011;21441;52.190;20.910;2022-11-12T06:06:37;30.50;;;16.45;;
35330;SDS011;21441;52.190;20.910;2022-11-12T06:09:04;31.15;;;16.50;;
35330;SDS011;21441;52.190;20.910;2022-11-12T06:11:31;33.30;;;19.50;;
35330;SDS011;21441;52.190;20.910;2022-11-12T06:13:59;26.02;;;13.98;;
35330;SDS011;21441;52.190;20.910;2022-11-12T06:16:26;27.25;;;15.05;;
35330;SDS011;21441;52.190;20.910;2022-11-12T06:18:55;31.23;;;16.42;;
35330;SDS011;21441;52.190;20.910;2022-11-12T06:21:23;22.60;;;12.88;;
35330;SDS011;21441;52.190;20.910;2022-11-12T06:23:53;25.75;;;16.02;;
35330;SDS011;21441;52.190;20.910;2022-11-12T06:26:21;27.02;;;14.85;;
35330;SDS011;21441;52.190;20.910;2022-11-12T06:28:49;35.22;;;19.75;;
35330;SDS011;21441;52.190;20.910;2022-11-12T06:31:17;30.35;;;17.23;;
35330;SDS011;21441;52.190;20.910;2022-11-12T06:33:45;36.88;;;21.52;;
35330;SDS011;21441;52.190;20.910;2022-11-12T06:36:15;33.28;;;18.58;;
35330;SDS011;21441;52.190;20.910;2022-11-12T06:41:10;37.33;;;19.52;;
35330;SDS011;21441;52.190;20.910;2022-11-12T06:43:38;39.97;;;22.45;;
35330;SDS011;21441;52.190;20.910;2022-11-12T06:46:06;35.38;;;20.83;;
35330;SDS011;21441;52.190;20.910;2022-11-12T06:48:34;39.20;;;21.27;;
35330;SDS011;21441;52.190;20.910;2022-11-12T06:51:06;37.90;;;21.85;;
35330;SDS011;21441;52.190;20.910;2022-11-12T06:53:36;39.83;;;19.80;;
35330;SDS011;21441;52.190;20.910;2022-11-12T06:56:04;29.55;;;16.33;;
35330;SDS011;21441;52.190;20.910;2022-11-12T06:58:35;35.83;;;18.58;;
35330;SDS011;21441;52.190;20.910;2022-11-12T07:01:03;46.72;;;23.05;;
35330;SDS011;21441;52.190;20.910;2022-11-12T07:03:32;41.58;;;22.05;;
35330;SDS011;21441;52.190;20.910;2022-11-12T07:06:02;42.10;;;21.38;;
35330;SDS011;21441;52.190;20.910;2022-11-12T07:08:31;44.83;;;24.13;;
35330;SDS011;21441;52.190;20.910;2022-11-12T07:11:00;46.85;;;21.67;;
35330;SDS011;21441;52.190;20.910;2022-11-12T07:13:28;42.20;;;22.92;;
35330;SDS011;21441;52.190;20.910;2022-11-12T07:15:56;36.95;;;19.55;;
35330;SDS011;21441;52.190;20.910;2022-11-12T07:18:24;42.75;;;24.52;;
35330;SDS011;21441;52.190;20.910;2022-11-12T07:20:56;47.45;;;24.08;;
35330;SDS011;21441;52.190;20.910;2022-11-12T07:23:23;44.58;;;23.58;;
35330;SDS011;21441;52.190;20.910;2022-11-12T07:25:54;37.42;;;20.48;;
35330;SDS011;21441;52.190;20.910;2022-11-12T07:28:24;42.60;;;21.88;;
35330;SDS011;21441;52.190;20.910;2022-11-12T07:30:56;48.28;;;22.60;;
35330;SDS011;21441;52.190;20.910;2022-11-12T07:33:24;42.65;;;21.63;;
35330;SDS011;21441;52.190;20.910;2022-11-12T07:35:55;42.05;;;21.80;;
35330;SDS011;21441;52.190;20.910;2022-11-12T07:38:24;54.88;;;23.08;;
35330;SDS011;21441;52.190;20.910;2022-11-12T07:40:51;50.72;;;25.58;;
35330;SDS011;21441;52.190;20.910;2022-11-12T07:43:26;42.60;;;22.05;;
35330;SDS011;21441;52.190;20.910;2022-11-12T07:45:56;43.08;;;22.45;;
35330;SDS011;21441;52.190;20.910;2022-11-12T07:48:23;44.15;;;25.20;;
35330;SDS011;21441;52.190;20.910;2022-11-12T07:50:51;44.92;;;24.27;;
35330;SDS011;21441;52.190;20.910;2022-11-12T07:53:17;45.45;;;25.95;;
35330;SDS011;21441;52.190;20.910;2022-11-12T07:55:51;48.75;;;26.90;;
35330;SDS011;21441;52.190;20.910;2022-11-12T07:58:20;50.85;;;25.52;;
35330;SDS011;21441;52.190;20.910;2022-11-12T08:00:48;46.50;;;23.80;;
35330;SDS011;21441;52.190;20.910;2022-11-12T08:03:16;44.35;;;23.00;;
35330;SDS011;21441;52.190;20.910;2022-11-12T08:05:43;48.45;;;25.33;;
35330;SDS011;21441;52.190;20.910;2022-11-12T08:08:11;47.97;;;25.02;;
35330;SDS011;21441;52.190;20.910;2022-11-12T08:10:38;45.50;;;24.67;;
35330;SDS011;21441;52.190;20.910;2022-11-12T08:13:05;45.47;;;26.90;;
35330;SDS011;21441;52.190;20.910;2022-11-12T08:15:32;48.45;;;26.10;;
35330;SDS011;21441;52.190;20.910;2022-11-12T08:18:00;41.58;;;24.60;;
35330;SDS011;21441;52.190;20.910;2022-11-12T08:20:27;51.97;;;26.90;;
35330;SDS011;21441;52.190;20.910;2022-11-12T08:22:57;42.55;;;25.30;;
35330;SDS011;21441;52.190;20.910;2022-11-12T08:25:25;44.90;;;25.33;;
35330;SDS011;21441;52.190;20.910;2022-11-12T08:27:54;40.80;;;22.92;;
35330;SDS011;21441;52.190;20.910;2022-11-12T08:30:22;42.13;;;25.17;;
35330;SDS011;21441;52.190;20.910;2022-11-12T08:32:54;45.05;;;26.02;;
35330;SDS011;21441;52.190;20.910;2022-11-12T08:35:23;43.75;;;24.45;;
35330;SDS011;21441;52.190;20.910;2022-11-12T08:37:50;39.70;;;23.85;;
35330;SDS011;21441;52.190;20.910;2022-11-12T08:40:17;41.78;;;23.63;;
35330;SDS011;21441;52.190;20.910;2022-11-12T08:42:44;48.25;;;25.40;;
35330;SDS011;21441;52.190;20.910;2022-11-12T08:45:11;40.60;;;23.75;;
35330;SDS011;21441;52.190;20.910;2022-11-12T08:47:38;41.42;;;23.83;;
35330;SDS011;21441;52.190;20.910;2022-11-12T08:50:06;42.20;;;24.92;;
35330;SDS011;21441;52.190;20.910;2022-11-12T08:52:35;44.03;;;26.30;;
35330;SDS011;21441;52.190;20.910;2022-11-12T08:55:02;42.58;;;25.80;;
35330;SDS011;21441;52.190;20.910;2022-11-12T08:57:29;40.08;;;21.77;;
35330;SDS011;21441;52.190;20.910;2022-11-12T08:59:56;45.90;;;26.25;;
35330;SDS011;21441;52.190;20.910;2022-11-12T09:02:23;45.58;;;24.35;;
35330;SDS011;21441;52.190;20.910;2022-11-12T09:04:50;47.50;;;25.33;;
35330;SDS011;21441;52.190;20.910;2022-11-12T09:07:17;46.53;;;26.85;;
35330;SDS011;21441;52.190;20.910;2022-11-12T09:09:46;46.15;;;26.10;;
35330;SDS011;21441;52.190;20.910;2022-11-12T09:12:13;45.97;;;25.67;;
35330;SDS011;21441;52.190;20.910;2022-11-12T09:17:10;47.15;;;24.90;;
35330;SDS011;21441;52.190;20.910;2022-11-12T09:19:38;43.88;;;24.55;;
35330;SDS011;21441;52.190;20.910;2022-11-12T09:22:05;42.00;;;23.50;;
35330;SDS011;21441;52.190;20.910;2022-11-12T09:24:32;40.42;;;25.33;;
35330;SDS011;21441;52.190;20.910;2022-11-12T09:27:00;50.53;;;27.80;;
35330;SDS011;21441;52.190;20.910;2022-11-12T09:29:27;45.45;;;26.45;;
35330;SDS011;21441;52.190;20.910;2022-11-12T09:31:54;46.70;;;29.00;;
35330;SDS011;21441;52.190;20.910;2022-11-12T09:34:24;48.70;;;25.13;;
35330;SDS011;21441;52.190;20.910;2022-11-12T09:36:51;47.85;;;26.10;;
35330;SDS011;21441;52.190;20.910;2022-11-12T09:39:18;47.10;;;27.30;;
35330;SDS011;21441;52.190;20.910;2022-11-12T09:41:45;42.97;;;25.05;;
35330;SDS011;21441;52.190;20.910;2022-11-12T09:44:14;45.13;;;25.90;;
35330;SDS011;21441;52.190;20.910;2022-11-12T09:46:44;45.17;;;25.55;;
35330;SDS011;21441;52.190;20.910;2022-11-12T09:49:15;41.58;;;26.27;;
35330;SDS011;21441;52.190;20.910;2022-11-12T09:51:47;45.45;;;24.08;;
35330;SDS011;21441;52.190;20.910;2022-11-12T09:54:18;46.90;;;27.60;;
35330;SDS011;21441;52.190;20.910;2022-11-12T09:56:48;52.58;;;27.75;;
35330;SDS011;21441;52.190;20.910;2022-11-12T09:59:18;51.80;;;28.00;;
35330;SDS011;21441;52.190;20.910;2022-11-12T10:01:49;46.53;;;27.10;;
35330;SDS011;21441;52.190;20.910;2022-11-12T10:04:31;42.90;;;25.88;;
35330;SDS011;21441;52.190;20.910;2022-11-12T10:07:11;51.17;;;26.98;;
35330;SDS011;21441;52.190;20.910;2022-11-12T10:09:47;45.03;;;26.00;;
35330;SDS011;21441;52.190;20.910;2022-11-12T10:12:26;44.17;;;26.80;;
35330;SDS011;21441;52.190;20.910;2022-11-12T10:15:13;45.03;;;26.35;;
35330;SDS011;21441;52.190;20.910;2022-11-12T10:18:05;44.28;;;25.73;;
35330;SDS011;21441;52.190;20.910;2022-11-12T10:20:41;46.72;;;27.70;;
35330;SDS011;21441;52.190;20.910;2022-11-12T10:23:15;57.05;;;29.35;;
35330;SDS011;21441;52.190;20.910;2022-11-12T10:25:46;54.25;;;28.70;;
35330;SDS011;21441;52.190;20.910;2022-11-12T10:28:20;51.28;;;29.40;;
35330;SDS011;21441;52.190;20.910;2022-11-12T10:30:54;52.92;;;29.48;;
35330;SDS011;21441;52.190;20.910;2022-11-12T10:33:28;45.05;;;28.95;;
35330;SDS011;21441;52.190;20.910;2022-11-12T10:35:56;44.38;;;27.10;;
35330;SDS011;21441;52.190;20.910;2022-11-12T10:38:38;42.17;;;27.33;;
35330;SDS011;21441;52.190;20.910;2022-11-12T10:41:16;46.05;;;27.77;;
35330;SDS011;21441;52.190;20.910;2022-11-12T10:43:55;42.35;;;26.13;;
35330;SDS011;21441;52.190;20.910;2022-11-12T10:46:26;46.47;;;27.27;;
35330;SDS011;21441;52.190;20.910;2022-11-12T10:51:27;46.40;;;26.52;;
35330;SDS011;21441;52.190;20.910;2022-11-12T10:56:25;44.42;;;26.85;;
35330;SDS011;21441;52.190;20.910;2022-11-12T10:59:13;46.53;;;28.35;;
35330;SDS011;21441;52.190;20.910;2022-11-12T11:01:43;42.50;;;27.98;;
35330;SDS011;21441;52.190;20.910;2022-11-12T11:04:14;44.42;;;27.83;;
35330;SDS011;21441;52.190;20.910;2022-11-12T11:06:44;46.42;;;27.48;;
35330;SDS011;21441;52.190;20.910;2022-11-12T11:09:14;42.25;;;25.60;;
35330;SDS011;21441;52.190;20.910;2022-11-12T11:11:47;42.42;;;25.88;;
35330;SDS011;21441;52.190;20.910;2022-11-12T11:14:26;43.33;;;27.70;;
35330;SDS011;21441;52.190;20.910;2022-11-12T11:16:59;45.72;;;29.42;;
35330;SDS011;21441;52.190;20.910;2022-11-12T11:19:35;46.15;;;28.05;;
35330;SDS011;21441;52.190;20.910;2022-11-12T11:22:14;44.90;;;27.60;;
35330;SDS011;21441;52.190;20.910;2022-11-12T11:24:59;44.00;;;28.08;;
35330;SDS011;21441;52.190;20.910;2022-11-12T11:27:39;42.33;;;26.52;;
35330;SDS011;21441;52.190;20.910;2022-11-12T11:30:12;48.03;;;30.52;;
35330;SDS011;21441;52.190;20.910;2022-11-12T11:32:48;43.35;;;27.08;;
35330;SDS011;21441;52.190;20.910;2022-11-12T11:35:31;41.30;;;26.88;;
35330;SDS011;21441;52.190;20.910;2022-11-12T11:38:15;41.58;;;26.23;;
35330;SDS011;21441;52.190;20.910;2022-11-12T11:40:54;40.58;;;27.17;;
35330;SDS011;21441;52.190;20.910;2022-11-12T11:43:36;38.08;;;25.45;;
35330;SDS011;21441;52.190;20.910;2022-11-12T11:46:14;37.58;;;24.35;;
35330;SDS011;21441;52.190;20.910;2022-11-12T11:48:55;37.40;;;25.25;;
35330;SDS011;21441;52.190;20.910;2022-11-12T11:51:36;38.20;;;23.88;;
35330;SDS011;21441;52.190;20.910;2022-11-12T11:54:11;38.08;;;25.60;;
35330;SDS011;21441;52.190;20.910;2022-11-12T11:59:27;36.63;;;22.70;;
35330;SDS011;21441;52.190;20.910;2022-11-12T12:05:01;33.47;;;21.42;;
35330;SDS011;21441;52.190;20.910;2022-11-12T12:07:45;35.45;;;21.20;;
35330;SDS011;21441;52.190;20.910;2022-11-12T12:10:18;31.55;;;19.85;;
35330;SDS011;21441;52.190;20.910;2022-11-12T12:12:53;31.88;;;19.63;;
35330;SDS011;21441;52.190;20.910;2022-11-12T12:15:33;32.83;;;21.48;;
35330;SDS011;21441;52.190;20.910;2022-11-12T12:18:08;33.40;;;20.00;;
35330;SDS011;21441;52.190;20.910;2022-11-12T12:20:50;33.03;;;18.17;;
35330;SDS011;21441;52.190;20.910;2022-11-12T12:23:25;26.77;;;17.02;;
35330;SDS011;21441;52.190;20.910;2022-11-12T12:25:57;29.30;;;18.92;;
35330;SDS011;21441;52.190;20.910;2022-11-12T12:28:32;28.65;;;16.50;;
35330;SDS011;21441;52.190;20.910;2022-11-12T12:31:04;31.73;;;16.73;;
35330;SDS011;21441;52.190;20.910;2022-11-12T12:33:35;25.08;;;15.88;;
35330;SDS011;21441;52.190;20.910;2022-11-12T12:36:10;27.05;;;17.33;;
35330;SDS011;21441;52.190;20.910;2022-11-12T12:38:42;28.15;;;16.20;;
35330;SDS011;21441;52.190;20.910;2022-11-12T12:41:15;31.05;;;17.55;;
35330;SDS011;21441;52.190;20.910;2022-11-12T12:43:53;27.25;;;16.90;;
35330;SDS011;21441;52.190;20.910;2022-11-12T12:46:24;26.38;;;15.93;;
35330;SDS011;21441;52.190;20.910;2022-11-12T12:48:53;28.35;;;15.93;;
35330;SDS011;21441;52.190;20.910;2022-11-12T12:51:23;22.00;;;13.35;;
35330;SDS011;21441;52.190;20.910;2022-11-12T12:53:53;22.05;;;13.75;;
35330;SDS011;21441;52.190;20.910;2022-11-12T12:59:18;24.30;;;13.77;;
35330;SDS011;21441;52.190;20.910;2022-11-12T13:01:52;24.60;;;14.65;;
35330;SDS011;21441;52.190;20.910;2022-11-12T13:07:20;24.92;;;14.00;;
35330;SDS011;21441;52.190;20.910;2022-11-12T13:13:00;24.85;;;15.63;;
35330;SDS011;21441;52.190;20.910;2022-11-12T13:15:39;24.90;;;14.18;;
35330;SDS011;21441;52.190;20.910;2022-11-12T13:18:08;25.00;;;14.27;;
35330;SDS011;21441;52.190;20.910;2022-11-12T13:20:36;22.90;;;15.40;;
35330;SDS011;21441;52.190;20.910;2022-11-12T13:23:10;25.20;;;16.55;;
35330;SDS011;21441;52.190;20.910;2022-11-12T13:25:54;28.95;;;17.27;;
35330;SDS011;21441;52.190;20.910;2022-11-12T13:32:24;28.13;;;18.30;;
35330;SDS011;21441;52.190;20.910;2022-11-12T13:38:02;32.30;;;19.95;;
35330;SDS011;21441;52.190;20.910;2022-11-12T13:40:40;34.28;;;20.85;;
35330;SDS011;21441;52.190;20.910;2022-11-12T13:43:23;35.33;;;20.60;;
35330;SDS011;21441;52.190;20.910;2022-11-12T13:46:16;35.60;;;21.38;;
35330;SDS011;21441;52.190;20.910;2022-11-12T13:48:53;33.25;;;22.00;;
35330;SDS011;21441;52.190;20.910;2022-11-12T13:51:30;39.13;;;22.27;;
35330;SDS011;21441;52.190;20.910;2022-11-12T13:57:01;33.13;;;20.27;;
35330;SDS011;21441;52.190;20.910;2022-11-12T13:59:39;35.78;;;21.67;;
35330;SDS011;21441;52.190;20.910;2022-11-12T14:02:13;35.75;;;22.58;;
35330;SDS011;21441;52.190;20.910;2022-11-12T14:04:48;33.58;;;20.02;;
35330;SDS011;21441;52.190;20.910;2022-11-12T14:07:19;34.05;;;21.23;;
35330;SDS011;21441;52.190;20.910;2022-11-12T14:10:01;38.03;;;19.65;;
35330;SDS011;21441;52.190;20.910;2022-11-12T14:12:40;38.70;;;23.73;;
35330;SDS011;21441;52.190;20.910;2022-11-12T14:15:31;42.55;;;21.92;;
35330;SDS011;21441;52.190;20.910;2022-11-12T14:18:15;36.75;;;22.10;;
35330;SDS011;21441;52.190;20.910;2022-11-12T14:20:52;37.15;;;23.70;;
35330;SDS011;21441;52.190;20.910;2022-11-12T14:23:20;35.08;;;21.35;;
35330;SDS011;21441;52.190;20.910;2022-11-12T14:25:49;35.47;;;21.63;;
35330;SDS011;21441;52.190;20.910;2022-11-12T14:28:25;39.17;;;24.13;;
35330;SDS011;21441;52.190;20.910;2022-11-12T14:30:54;31.42;;;20.98;;
35330;SDS011;21441;52.190;20.910;2022-11-12T14:33:22;33.80;;;19.40;;
35330;SDS011;21441;52.190;20.910;2022-11-12T14:35:51;35.10;;;21.35;;
35330;SDS011;21441;52.190;20.910;2022-11-12T14:38:20;38.25;;;22.20;;
35330;SDS011;21441;52.190;20.910;2022-11-12T14:40:52;37.15;;;20.83;;
35330;SDS011;21441;52.190;20.910;2022-11-12T14:45:58;39.53;;;23.40;;
35330;SDS011;21441;52.190;20.910;2022-11-12T14:48:27;34.03;;;22.27;;
35330;SDS011;21441;52.190;20.910;2022-11-12T14:50:57;38.15;;;23.88;;
35330;SDS011;21441;52.190;20.910;2022-11-12T14:53:30;36.95;;;22.90;;
35330;SDS011;21441;52.190;20.910;2022-11-12T14:56:03;40.45;;;23.17;;
35330;SDS011;21441;52.190;20.910;2022-11-12T15:01:16;37.50;;;21.90;;
35330;SDS011;21441;52.190;20.910;2022-11-12T15:03:44;35.72;;;21.63;;
35330;SDS011;21441;52.190;20.910;2022-11-12T15:06:11;36.65;;;22.25;;
35330;SDS011;21441;52.190;20.910;2022-11-12T15:08:54;38.72;;;21.80;;
35330;SDS011;21441;52.190;20.910;2022-11-12T15:11:23;43.83;;;24.70;;